| time (UTC) | temp F | wind direction | speed knots | gust knots | rain 1hr in | rain 24hr in | rain mn in | humidity % | barometer mb |
| 20260906022413 | 84 | 44 | 1.7 | 1.7 | 0.00 | 0.00 | 0.00 | 66 | 1010.0 |
| 20260906021908 | 84 | 118 | 1.7 | 1.7 | 0.00 | 0.00 | 0.00 | 64 | 1010.2 |
| 20260906021409 | 85 | 99 | 1.7 | 1.7 | 0.00 | 0.00 | 0.00 | 63 | 1010.3 |
| 20260906020903 | 85 | 246 | 0.0 | 0.0 | 0.00 | 0.00 | 0.00 | 61 | 1010.5 |
| 20260906020403 | 85 | 81 | 0.0 | 1.7 | 0.00 | 0.00 | 0.00 | 61 | 1010.5 |
| 20260906015857 | 85 | 4 | 1.7 | 2.6 | 0.00 | 0.00 | 0.00 | 61 | 1010.5 |
| 20260906015356 | 85 | 17 | 0.9 | 2.6 | 0.00 | 0.00 | 0.00 | 60 | 1009.9 |
| 20260906014856 | 85 | 346 | 1.7 | 2.6 | 0.00 | 0.00 | 0.00 | 60 | 1010.1 |
| 20260906014356 | 85 | 356 | 1.7 | 1.7 | 0.00 | 0.00 | 0.00 | 59 | 1009.6 |
| 20260906013853 | 85 | 15 | 1.7 | 1.7 | 0.00 | 0.00 | 0.00 | 60 | 1009.7 |
| 20260906013348 | 85 | 69 | 0.0 | 1.7 | 0.00 | 0.00 | 0.00 | 60 | 1009.7 |
| 20260906012843 | 85 | 128 | 0.0 | 1.7 | 0.00 | 0.00 | 0.00 | 62 | 1010.0 |
| 20260906012338 | 85 | 174 | 0.9 | 1.7 | 0.00 | 0.00 | 0.00 | 61 | 1009.8 |
| 20260906011838 | 84 | 63 | 0.0 | 1.7 | 0.00 | 0.00 | 0.00 | 63 | 1010.0 |
| 20260906011333 | 84 | 126 | 0.9 | 1.7 | 0.00 | 0.00 | 0.00 | 63 | 1010.0 |
| 20260906010829 | 85 | 11 | 0.0 | 1.7 | 0.00 | 0.00 | 0.00 | 62 | 1009.9 |
| 20260906010325 | 85 | 117 | 0.0 | 0.9 | 0.00 | 0.00 | 0.00 | 60 | 1009.6 |
| 20260906005820 | 86 | 351 | 0.0 | 1.7 | 0.00 | 0.00 | 0.00 | 60 | 1009.6 |
| 20260906005319 | 86 | 302 | 0.0 | 1.7 | 0.00 | 0.00 | 0.00 | 61 | 1009.5 |
| 20260906004818 | 86 | 21 | 0.0 | 1.7 | 0.00 | 0.00 | 0.00 | 59 | 1009.6 |
| 20260906004318 | 86 | 64 | 4.3 | 5.2 | 0.00 | 0.00 | 0.00 | 59 | 1009.9 |
| 20260906003813 | 86 | 0 | 0.0 | 1.7 | 0.00 | 0.00 | 0.00 | 59 | 1009.9 |
| 20260906003308 | 87 | 83 | 1.7 | 4.3 | 0.00 | 0.00 | 0.00 | 58 | 1010.0 |
| 20260906002804 | 87 | 86 | 0.9 | 7.0 | 0.00 | 0.00 | 0.00 | 57 | 1010.2 |
| 20260906002306 | 88 | 30 | 1.7 | 7.8 | 0.00 | 0.00 | 0.00 | 57 | 1010.0 |
| 20260906001759 | 89 | 46 | 3.5 | 6.1 | 0.00 | 0.00 | 0.00 | 58 | 1010.2 |
| 20260906001254 | 89 | 42 | 4.3 | 9.6 | 0.00 | 0.00 | 0.00 | 60 | 1010.0 |
| 20260906000750 | 90 | 100 | 5.2 | 7.8 | 0.00 | 0.00 | 0.00 | 59 | 1010.2 |
| 20260906000250 | 91 | 54 | 5.2 | 7.0 | 0.00 | 0.00 | 0.00 | 58 | 1010.0 |
| 20260905235745 | 92 | 52 | 1.7 | 7.8 | 0.00 | 0.00 | 0.00 | 57 | 1010.0 |
| 20260905235244 | 94 | 27 | 5.2 | 11.3 | 0.00 | 0.00 | 0.00 | 54 | 1010.1 |
| 20260905234740 | 95 | 57 | 1.7 | 2.6 | 0.00 | 0.00 | 0.00 | 53 | 1009.7 |
| 20260905234235 | 96 | 57 | 0.0 | 1.7 | 0.00 | 0.00 | 0.00 | 50 | 1009.5 |
| 20260905233730 | 96 | 8 | 0.9 | 1.7 | 0.00 | 0.00 | 0.00 | 51 | 1009.3 |
| 20260905233230 | 96 | 323 | 0.0 | 0.9 | 0.00 | 0.00 | 0.00 | 49 | 1009.4 |
| 20260905232724 | 96 | 279 | 0.9 | 2.6 | 0.00 | 0.00 | 0.00 | 47 | 1009.3 |
| 20260905232220 | 96 | 335 | 0.0 | 2.6 | 0.00 | 0.00 | 0.00 | 47 | 1009.2 |
| 20260905231716 | 96 | 327 | 1.7 | 1.7 | 0.00 | 0.00 | 0.00 | 48 | 1009.1 |
| 20260905231211 | 96 | 264 | 1.7 | 2.6 | 0.00 | 0.00 | 0.00 | 46 | 1009.1 |
| 20260905230707 | 96 | 252 | 0.9 | 2.6 | 0.00 | 0.00 | 0.00 | 46 | 1009.1 |
| 20260905230205 | 97 | 279 | 1.7 | 4.3 | 0.00 | 0.00 | 0.00 | 46 | 1009.1 |
| 20260905225705 | 97 | 278 | 1.7 | 2.6 | 0.00 | 0.00 | 0.00 | 46 | 1009.2 |
| 20260905225200 | 97 | 263 | 0.9 | 3.5 | 0.00 | 0.00 | 0.00 | 45 | 1009.2 |
| 20260905224659 | 98 | 257 | 0.0 | 2.6 | 0.00 | 0.00 | 0.00 | 44 | 1009.1 |
| 20260905224153 | 98 | 271 | 0.9 | 2.6 | 0.00 | 0.00 | 0.00 | 44 | 1009.1 |
| 20260905223650 | 98 | 315 | 2.6 | 3.5 | 0.00 | 0.00 | 0.00 | 43 | 1009.2 |
| 20260905223148 | 98 | 277 | 0.0 | 1.7 | 0.00 | 0.00 | 0.00 | 43 | 1009.1 |
| 20260905222643 | 98 | 328 | 0.0 | 2.6 | 0.00 | 0.00 | 0.00 | 43 | 1009.1 |
| 20260905222143 | 99 | 254 | 1.7 | 2.6 | 0.00 | 0.00 | 0.00 | 42 | 1009.2 |
| 20260905221638 | 99 | 307 | 0.9 | 1.7 | 0.00 | 0.00 | 0.00 | 44 | 1008.9 |
| 20260905221135 | 100 | 226 | 2.6 | 5.2 | 0.00 | 0.00 | 0.00 | 40 | 1009.0 |
| 20260905220630 | 101 | 272 | 1.7 | 3.5 | 0.00 | 0.00 | 0.00 | 40 | 1009.2 |
| 20260905220126 | 101 | 242 | 0.9 | 3.5 | 0.00 | 0.00 | 0.00 | 39 | 1009.3 |
| 20260905215626 | 102 | 231 | 2.6 | 2.6 | 0.00 | 0.00 | 0.00 | 38 | 1009.1 |
| 20260905215121 | 102 | 298 | 1.7 | 2.6 | 0.00 | 0.00 | 0.00 | 39 | 1009.2 |
| 20260905214618 | 102 | 267 | 3.5 | 3.5 | 0.00 | 0.00 | 0.00 | 38 | 1009.0 |
| 20260905214117 | 102 | 14 | 0.0 | 4.3 | 0.00 | 0.00 | 0.00 | 40 | 1009.2 |
| 20260905213613 | 102 | 276 | 1.7 | 4.3 | 0.00 | 0.00 | 0.00 | 38 | 1009.2 |
| 20260905213108 | 103 | 304 | 3.5 | 3.5 | 0.00 | 0.00 | 0.00 | 37 | 1009.2 |
| 20260905212609 | 103 | 245 | 1.7 | 2.6 | 0.00 | 0.00 | 0.00 | 39 | 1009.2 |
| 20260905212108 | 102 | 221 | 1.7 | 4.3 | 0.00 | 0.00 | 0.00 | 40 | 1009.2 |
| 20260905211603 | 102 | 281 | 1.7 | 3.5 | 0.00 | 0.00 | 0.00 | 41 | 1009.4 |
| 20260905211059 | 103 | 263 | 4.3 | 5.2 | 0.00 | 0.00 | 0.00 | 39 | 1009.5 |
| 20260905210554 | 103 | 266 | 1.7 | 2.6 | 0.00 | 0.00 | 0.00 | 40 | 1009.4 |
| 20260905210049 | 102 | 217 | 0.0 | 3.5 | 0.00 | 0.00 | 0.00 | 40 | 1009.6 |
| 20260905205549 | 101 | 273 | 2.6 | 4.3 | 0.00 | 0.00 | 0.00 | 42 | 1009.7 |
| 20260905205048 | 101 | 262 | 1.7 | 4.3 | 0.00 | 0.00 | 0.00 | 41 | 1009.6 |
| 20260905204543 | 101 | 233 | 1.7 | 3.5 | 0.00 | 0.00 | 0.00 | 42 | 1009.6 |
| 20260905204038 | 101 | 223 | 1.7 | 4.3 | 0.00 | 0.00 | 0.00 | 41 | 1009.6 |
| 20260905203538 | 101 | 263 | 2.6 | 5.2 | 0.00 | 0.00 | 0.00 | 40 | 1009.8 |
| 20260905203033 | 102 | 214 | 0.9 | 4.3 | 0.00 | 0.00 | 0.00 | 41 | 1009.8 |
| 20260905202528 | 103 | 271 | 0.9 | 4.3 | 0.00 | 0.00 | 0.00 | 41 | 1010.0 |
| 20260905202024 | 102 | 223 | 1.7 | 3.5 | 0.00 | 0.00 | 0.00 | 39 | 1009.9 |
| 20260905201520 | 101 | 229 | 0.9 | 4.3 | 0.00 | 0.00 | 0.00 | 40 | 1010.0 |
| 20260905201019 | 101 | 265 | 2.6 | 5.2 | 0.00 | 0.00 | 0.00 | 41 | 1009.9 |
| 20260905200515 | 102 | 240 | 1.7 | 7.0 | 0.00 | 0.00 | 0.00 | 40 | 1010.3 |
| 20260905200015 | 103 | 275 | 2.6 | 4.3 | 0.00 | 0.00 | 0.00 | 40 | 1010.3 |
| 20260905195514 | 102 | 302 | 0.0 | 2.6 | 0.00 | 0.00 | 0.00 | 42 | 1010.6 |
| 20260905195010 | 102 | 226 | 0.9 | 2.6 | 0.00 | 0.00 | 0.00 | 42 | 1010.6 |
| 20260905194509 | 101 | 230 | 2.6 | 5.2 | 0.00 | 0.00 | 0.00 | 43 | 1010.6 |
| 20260905194009 | 101 | 238 | 1.7 | 5.2 | 0.00 | 0.00 | 0.00 | 42 | 1010.7 |
| 20260905193504 | 101 | 216 | 2.6 | 5.2 | 0.00 | 0.00 | 0.00 | 42 | 1010.8 |
| 20260905192959 | 101 | 226 | 0.9 | 3.5 | 0.00 | 0.00 | 0.00 | 43 | 1010.6 |
| 20260905192454 | 100 | 177 | 1.7 | 4.3 | 0.00 | 0.00 | 0.00 | 43 | 1010.9 |
| 20260905191950 | 101 | 221 | 5.2 | 5.2 | 0.00 | 0.00 | 0.00 | 41 | 1010.8 |
| 20260905191444 | 101 | 307 | 0.9 | 1.7 | 0.00 | 0.00 | 0.00 | 43 | 1010.9 |
| 20260905190943 | 100 | 189 | 0.9 | 5.2 | 0.00 | 0.00 | 0.00 | 44 | 1011.0 |
| 20260905190441 | 100 | 148 | 0.9 | 3.5 | 0.00 | 0.00 | 0.00 | 45 | 1011.2 |
| 20260905185940 | 99 | 295 | 2.6 | 3.5 | 0.00 | 0.00 | 0.00 | 46 | 1011.0 |
| 20260905185435 | 99 | 266 | 1.7 | 2.6 | 0.00 | 0.00 | 0.00 | 46 | 1011.1 |
| 20260905184933 | 100 | 262 | 3.5 | 4.3 | 0.00 | 0.00 | 0.00 | 45 | 1011.3 |
| 20260905184428 | 100 | 138 | 1.7 | 3.5 | 0.00 | 0.00 | 0.00 | 46 | 1011.5 |
| 20260905183927 | 98 | 255 | 0.0 | 3.5 | 0.00 | 0.00 | 0.00 | 47 | 1011.3 |
| 20260905183422 | 99 | 14 | 2.6 | 6.1 | 0.00 | 0.00 | 0.00 | 46 | 1011.6 |
| 20260905182917 | 99 | 127 | 0.0 | 3.5 | 0.00 | 0.00 | 0.00 | 49 | 1011.8 |
| 20260905182416 | 99 | 10 | 0.0 | 2.6 | 0.00 | 0.00 | 0.00 | 47 | 1011.9 |
| 20260905181912 | 99 | 102 | 0.0 | 1.7 | 0.00 | 0.00 | 0.00 | 48 | 1011.9 |
| 20260905181412 | 99 | 247 | 0.9 | 2.6 | 0.00 | 0.00 | 0.00 | 49 | 1012.0 |
| 20260905180911 | 99 | 124 | 2.6 | 2.6 | 0.00 | 0.00 | 0.00 | 48 | 1012.1 |
| 20260905180407 | 98 | 260 | 1.7 | 1.7 | 0.00 | 0.00 | 0.00 | 50 | 1012.1 |
| 20260905175907 | 98 | 86 | 0.0 | 4.3 | 0.00 | 0.00 | 0.00 | 49 | 1012.1 |
| 20260905175407 | 98 | 218 | 0.0 | 3.5 | 0.00 | 0.00 | 0.00 | 48 | 1012.0 |
| 20260905174907 | 97 | 265 | 0.0 | 3.5 | 0.00 | 0.00 | 0.00 | 52 | 1012.2 |
| 20260905174403 | 97 | 231 | 2.6 | 3.5 | 0.00 | 0.00 | 0.00 | 50 | 1012.3 |
| 20260905173858 | 98 | 216 | 3.5 | 4.3 | 0.00 | 0.00 | 0.00 | 51 | 1012.3 |
| 20260905173354 | 98 | 123 | 0.9 | 3.5 | 0.00 | 0.00 | 0.00 | 51 | 1012.3 |
| 20260905172849 | 98 | 357 | 0.0 | 2.6 | 0.00 | 0.00 | 0.00 | 50 | 1012.4 |
| 20260905172347 | 97 | 316 | 0.0 | 2.6 | 0.00 | 0.00 | 0.00 | 52 | 1012.5 |
| 20260905171843 | 97 | 286 | 2.6 | 3.5 | 0.00 | 0.00 | 0.00 | 53 | 1012.5 |
| 20260905171340 | 97 | 246 | 0.9 | 3.5 | 0.00 | 0.00 | 0.00 | 55 | 1012.4 |
| 20260905170836 | 96 | 256 | 0.9 | 3.5 | 0.00 | 0.00 | 0.00 | 54 | 1012.7 |
| 20260905170332 | 95 | 219 | 3.5 | 3.5 | 0.00 | 0.00 | 0.00 | 54 | 1012.5 |
| 20260905165831 | 95 | 218 | 2.6 | 4.3 | 0.00 | 0.00 | 0.00 | 54 | 1012.5 |
| 20260905165326 | 95 | 280 | 2.6 | 3.5 | 0.00 | 0.00 | 0.00 | 54 | 1012.8 |
| 20260905164827 | 95 | 185 | 0.9 | 3.5 | 0.00 | 0.00 | 0.00 | 54 | 1012.8 |
| 20260905164326 | 95 | 259 | 2.6 | 3.5 | 0.00 | 0.00 | 0.00 | 56 | 1012.9 |
| 20260905163822 | 94 | 217 | 0.0 | 2.6 | 0.00 | 0.00 | 0.00 | 55 | 1013.0 |
| 20260905163319 | 93 | 225 | 2.6 | 4.3 | 0.00 | 0.00 | 0.00 | 57 | 1013.0 |
| 20260905162814 | 93 | 274 | 1.7 | 2.6 | 0.00 | 0.00 | 0.00 | 56 | 1013.1 |
| 20260905162309 | 93 | 269 | 1.7 | 2.6 | 0.00 | 0.00 | 0.00 | 57 | 1013.2 |
| 20260905161809 | 93 | 211 | 1.7 | 3.5 | 0.00 | 0.00 | 0.00 | 58 | 1013.1 |
| 20260905161308 | 92 | 234 | 1.7 | 2.6 | 0.00 | 0.00 | 0.00 | 61 | 1013.3 |
| 20260905160806 | 92 | 279 | 1.7 | 3.5 | 0.00 | 0.00 | 0.00 | 61 | 1013.3 |
| 20260905160300 | 92 | 258 | 1.7 | 3.5 | 0.00 | 0.00 | 0.00 | 59 | 1013.4 |
| 20260905155755 | 91 | 286 | 1.7 | 2.6 | 0.00 | 0.00 | 0.00 | 61 | 1013.4 |
| 20260905155254 | 91 | 303 | 0.9 | 3.5 | 0.00 | 0.00 | 0.00 | 61 | 1013.4 |
| 20260905154748 | 90 | 104 | 0.0 | 1.7 | 0.00 | 0.00 | 0.00 | 66 | 1013.6 |
| 20260905154245 | 89 | 319 | 0.0 | 3.5 | 0.00 | 0.00 | 0.00 | 64 | 1013.5 |
| 20260905153740 | 89 | 264 | 0.0 | 2.6 | 0.00 | 0.00 | 0.00 | 67 | 1013.5 |
| 20260905153236 | 88 | 110 | 1.7 | 1.7 | 0.00 | 0.00 | 0.00 | 69 | 1013.8 |
| 20260905152731 | 88 | 294 | 0.0 | 1.7 | 0.00 | 0.00 | 0.00 | 71 | 1013.7 |
| 20260905152230 | 88 | 129 | 1.7 | 2.6 | 0.00 | 0.00 | 0.00 | 68 | 1013.7 |
| 20260905151730 | 88 | 124 | 0.0 | 2.6 | 0.00 | 0.00 | 0.00 | 70 | 1013.5 |
| 20260905151226 | 87 | 119 | 1.7 | 2.6 | 0.00 | 0.00 | 0.00 | 72 | 1013.6 |
| 20260905150721 | 85 | 106 | 0.0 | 1.7 | 0.00 | 0.00 | 0.00 | 76 | 1013.7 |
| 20260905150220 | 84 | 221 | 0.0 | 0.9 | 0.00 | 0.00 | 0.00 | 79 | 1013.8 |
| 20260905145718 | 84 | 126 | 0.0 | 1.7 | 0.00 | 0.00 | 0.00 | 80 | 1013.8 |
| 20260905145213 | 83 | 295 | 1.7 | 1.7 | 0.00 | 0.00 | 0.00 | 79 | 1013.6 |
| 20260905144712 | 84 | 302 | 0.0 | 1.7 | 0.00 | 0.00 | 0.00 | 80 | 1013.7 |
| 20260905144211 | 84 | 265 | 0.0 | 1.7 | 0.00 | 0.00 | 0.00 | 80 | 1013.9 |
| 20260905143706 | 84 | 340 | 1.7 | 1.7 | 0.00 | 0.00 | 0.00 | 77 | 1013.8 |
| 20260905143206 | 84 | 340 | 1.7 | 1.7 | 0.00 | 0.00 | 0.00 | 77 | 1013.8 |
| 20260905142704 | 84 | 64 | 0.0 | 1.7 | 0.00 | 0.00 | 0.00 | 78 | 1013.7 |
| 20260905142205 | 84 | 333 | 0.0 | 0.9 | 0.00 | 0.00 | 0.00 | 80 | 1013.8 |
| 20260905141700 | 83 | 330 | 0.9 | 1.7 | 0.00 | 0.00 | 0.00 | 80 | 1013.8 |
| 20260905141156 | 83 | 53 | 0.0 | 0.9 | 0.00 | 0.00 | 0.00 | 82 | 1013.9 |
| 20260905140651 | 83 | 275 | 0.0 | 1.7 | 0.00 | 0.00 | 0.00 | 82 | 1013.9 |
| 20260905140150 | 82 | 116 | 0.9 | 1.7 | 0.00 | 0.00 | 0.00 | 82 | 1013.9 |
| 20260905135646 | 82 | 55 | 0.0 | 0.9 | 0.00 | 0.00 | 0.00 | 82 | 1013.8 |
| 20260905135141 | 82 | 118 | 1.7 | 1.7 | 0.00 | 0.00 | 0.00 | 83 | 1013.8 |
| 20260905134635 | 82 | 141 | 0.0 | 1.7 | 0.00 | 0.00 | 0.00 | 83 | 1013.8 |
| 20260905134134 | 82 | 94 | 0.9 | 1.7 | 0.00 | 0.00 | 0.00 | 85 | 1013.8 |
| 20260905133630 | 82 | 97 | 0.9 | 1.7 | 0.00 | 0.00 | 0.00 | 85 | 1014.0 |
| 20260905133130 | 81 | 77 | 0.9 | 1.7 | 0.00 | 0.00 | 0.00 | 85 | 1013.8 |
| 20260905132630 | 81 | 85 | 0.9 | 1.7 | 0.00 | 0.00 | 0.00 | 85 | 1013.8 |
| 20260905132125 | 81 | 100 | 0.0 | 1.7 | 0.00 | 0.00 | 0.00 | 86 | 1013.7 |
| 20260905131620 | 81 | 95 | 0.9 | 1.7 | 0.00 | 0.00 | 0.00 | 86 | 1013.8 |
| 20260905131115 | 81 | 131 | 0.9 | 1.7 | 0.00 | 0.00 | 0.00 | 86 | 1013.9 |
| 20260905130614 | 81 | 99 | 0.9 | 2.6 | 0.00 | 0.00 | 0.00 | 86 | 1014.0 |
| 20260905130109 | 80 | 103 | 0.9 | 1.7 | 0.00 | 0.00 | 0.00 | 87 | 1013.9 |
| 20260905125609 | 80 | 112 | 0.9 | 1.7 | 0.00 | 0.00 | 0.00 | 88 | 1013.8 |
| 20260905125104 | 80 | 100 | 1.7 | 1.7 | 0.00 | 0.00 | 0.00 | 90 | 1014.0 |
| 20260905124601 | 80 | 96 | 0.9 | 1.7 | 0.00 | 0.00 | 0.00 | 92 | 1014.0 |
| 20260905124056 | 79 | 98 | 0.0 | 0.9 | 0.00 | 0.00 | 0.00 | 93 | 1013.9 |
| 20260905123551 | 79 | 49 | 0.0 | 0.9 | 0.00 | 0.00 | 0.00 | 94 | 1014.0 |
| 20260905123049 | 78 | 89 | 0.0 | 1.7 | 0.00 | 0.00 | 0.00 | 95 | 1013.9 |
| 20260905122548 | 78 | 53 | 0.0 | 1.7 | 0.00 | 0.00 | 0.00 | 96 | 1013.7 |
| 20260905122043 | 78 | 60 | 0.9 | 1.7 | 0.00 | 0.00 | 0.00 | 97 | 1013.6 |
| 20260905121538 | 77 | 54 | 0.9 | 1.7 | 0.00 | 0.00 | 0.00 | 97 | 1013.8 |
| 20260905121033 | 77 | 61 | 0.9 | 1.7 | 0.00 | 0.00 | 0.00 | 96 | 1013.6 |
| 20260905120532 | 77 | 72 | 0.0 | 1.7 | 0.00 | 0.00 | 0.00 | 97 | 1013.6 |
| 20260905120028 | 77 | 66 | 0.9 | 1.7 | 0.00 | 0.00 | 0.00 | 96 | 1013.6 |
| 20260905115526 | 76 | 44 | 1.7 | 1.7 | 0.00 | 0.00 | 0.00 | 96 | 1013.5 |
| 20260905115021 | 76 | 81 | 0.0 | 1.7 | 0.00 | 0.00 | 0.00 | 96 | 1013.4 |
| 20260905114521 | 76 | 68 | 0.0 | 1.7 | 0.00 | 0.00 | 0.00 | 96 | 1013.3 |
| 20260905114020 | 76 | 85 | 0.9 | 1.7 | 0.00 | 0.00 | 0.00 | 96 | 1013.4 |
| 20260905113515 | 76 | 89 | 0.0 | 1.7 | 0.00 | 0.00 | 0.00 | 96 | 1013.3 |
| 20260905113011 | 76 | 65 | 0.9 | 1.7 | 0.00 | 0.00 | 0.00 | 96 | 1013.2 |
| 20260905112506 | 76 | 70 | 0.0 | 1.7 | 0.00 | 0.00 | 0.00 | 96 | 1013.0 |
| 20260905112001 | 76 | 69 | 0.9 | 1.7 | 0.00 | 0.00 | 0.00 | 96 | 1013.1 |
| 20260905111501 | 76 | 37 | 0.0 | 1.7 | 0.00 | 0.00 | 0.00 | 96 | 1013.1 |
| 20260905110955 | 76 | 72 | 0.0 | 1.7 | 0.00 | 0.00 | 0.00 | 96 | 1012.9 |
| 20260905110454 | 76 | 79 | 0.9 | 1.7 | 0.00 | 0.00 | 0.00 | 96 | 1012.7 |
| 20260905105955 | 76 | 73 | 0.0 | 1.7 | 0.00 | 0.00 | 0.00 | 95 | 1012.9 |
| 20260905105454 | 76 | 58 | 0.0 | 1.7 | 0.00 | 0.00 | 0.00 | 95 | 1012.7 |
| 20260905104949 | 76 | 77 | 0.9 | 1.7 | 0.00 | 0.00 | 0.00 | 95 | 1013.0 |
| 20260905104445 | 76 | 88 | 1.7 | 1.7 | 0.00 | 0.00 | 0.00 | 95 | 1012.6 |
| 20260905103945 | 76 | 32 | 0.9 | 1.7 | 0.00 | 0.00 | 0.00 | 95 | 1012.7 |
| 20260905103440 | 76 | 51 | 1.7 | 1.7 | 0.00 | 0.00 | 0.00 | 95 | 1012.6 |
| 20260905102936 | 76 | 72 | 1.7 | 1.7 | 0.00 | 0.00 | 0.00 | 95 | 1012.6 |
| 20260905102432 | 76 | 61 | 1.7 | 1.7 | 0.00 | 0.00 | 0.00 | 95 | 1012.6 |
| 20260905101927 | 76 | 72 | 0.0 | 1.7 | 0.00 | 0.00 | 0.00 | 95 | 1012.6 |
| 20260905101425 | 76 | 91 | 0.9 | 1.7 | 0.00 | 0.00 | 0.00 | 95 | 1012.7 |
| 20260905100920 | 76 | 70 | 0.9 | 1.7 | 0.00 | 0.00 | 0.00 | 95 | 1012.5 |
| 20260905100416 | 76 | 77 | 0.9 | 1.7 | 0.00 | 0.00 | 0.00 | 95 | 1012.5 |
| 20260905095915 | 76 | 58 | 1.7 | 2.6 | 0.00 | 0.00 | 0.00 | 95 | 1012.5 |
| 20260905095410 | 76 | 81 | 0.9 | 1.7 | 0.00 | 0.00 | 0.00 | 94 | 1012.3 |
| 20260905094910 | 77 | 59 | 0.0 | 1.7 | 0.00 | 0.00 | 0.00 | 94 | 1012.3 |
| 20260905094406 | 77 | 53 | 0.9 | 1.7 | 0.00 | 0.00 | 0.00 | 94 | 1012.4 |
| 20260905093905 | 77 | 53 | 0.9 | 1.7 | 0.00 | 0.00 | 0.00 | 94 | 1012.4 |
| 20260905093401 | 77 | 83 | 0.9 | 1.7 | 0.00 | 0.00 | 0.00 | 94 | 1012.4 |
| 20260905092856 | 77 | 27 | 0.0 | 1.7 | 0.00 | 0.00 | 0.00 | 94 | 1012.2 |
| 20260905092357 | 77 | 79 | 0.9 | 1.7 | 0.00 | 0.00 | 0.00 | 94 | 1012.2 |
| 20260905091856 | 77 | 70 | 0.0 | 1.7 | 0.00 | 0.00 | 0.00 | 94 | 1012.1 |
| 20260905091356 | 77 | 68 | 0.9 | 1.7 | 0.00 | 0.00 | 0.00 | 94 | 1012.2 |
| 20260905090855 | 77 | 70 | 0.9 | 1.7 | 0.00 | 0.00 | 0.00 | 94 | 1012.3 |
| 20260905090351 | 77 | 75 | 0.0 | 1.7 | 0.00 | 0.00 | 0.00 | 94 | 1012.2 |
| 20260905085850 | 77 | 38 | 0.9 | 1.7 | 0.00 | 0.00 | 0.00 | 94 | 1012.2 |
| 20260905085345 | 77 | 66 | 1.7 | 2.6 | 0.00 | 0.00 | 0.00 | 94 | 1012.3 |
| 20260905084841 | 77 | 85 | 0.9 | 1.7 | 0.00 | 0.00 | 0.00 | 93 | 1012.3 |
| 20260905084340 | 77 | 63 | 0.9 | 1.7 | 0.00 | 0.00 | 0.00 | 93 | 1012.4 |
| 20260905083835 | 77 | 84 | 0.0 | 1.7 | 0.00 | 0.00 | 0.00 | 93 | 1012.1 |
| 20260905083331 | 77 | 86 | 0.9 | 1.7 | 0.00 | 0.00 | 0.00 | 93 | 1012.3 |
| 20260905082826 | 77 | 62 | 0.0 | 1.7 | 0.00 | 0.00 | 0.00 | 93 | 1012.4 |
| 20260905082323 | 77 | 76 | 0.9 | 1.7 | 0.00 | 0.00 | 0.00 | 93 | 1012.5 |
| 20260905081823 | 77 | 89 | 0.0 | 0.9 | 0.00 | 0.00 | 0.00 | 93 | 1012.4 |
| 20260905081318 | 77 | 70 | 0.9 | 1.7 | 0.00 | 0.00 | 0.00 | 93 | 1012.4 |
| 20260905080817 | 77 | 60 | 0.9 | 1.7 | 0.00 | 0.00 | 0.00 | 92 | 1012.4 |
| 20260905080312 | 77 | 63 | 0.9 | 1.7 | 0.00 | 0.00 | 0.00 | 92 | 1012.3 |
| 20260905075810 | 77 | 89 | 0.0 | 1.7 | 0.00 | 0.00 | 0.00 | 92 | 1012.4 |
| 20260905075310 | 78 | 76 | 0.0 | 1.7 | 0.00 | 0.00 | 0.00 | 92 | 1012.5 |
| 20260905074809 | 78 | 105 | 1.7 | 1.7 | 0.00 | 0.00 | 0.00 | 92 | 1012.4 |
| 20260905074306 | 78 | 326 | 0.0 | 1.7 | 0.00 | 0.00 | 0.00 | 92 | 1012.2 |
| 20260905073801 | 77 | 296 | 0.0 | 0.9 | 0.00 | 0.00 | 0.00 | 92 | 1012.3 |
| 20260905073256 | 77 | 73 | 0.9 | 1.7 | 0.00 | 0.00 | 0.00 | 92 | 1012.3 |
| 20260905072755 | 78 | 89 | 0.9 | 1.7 | 0.00 | 0.00 | 0.00 | 91 | 1012.5 |
| 20260905072251 | 78 | 82 | 0.9 | 1.7 | 0.00 | 0.00 | 0.00 | 91 | 1012.5 |
| 20260905071748 | 78 | 73 | 0.9 | 1.7 | 0.00 | 0.00 | 0.00 | 91 | 1012.4 |
| 20260905071243 | 78 | 62 | 0.0 | 1.7 | 0.00 | 0.00 | 0.00 | 90 | 1012.3 |
| 20260905070738 | 78 | 52 | 0.9 | 1.7 | 0.00 | 0.00 | 0.00 | 90 | 1012.4 |
| 20260905070234 | 78 | 76 | 0.9 | 1.7 | 0.00 | 0.00 | 0.00 | 90 | 1012.6 |
| 20260905065733 | 78 | 88 | 1.7 | 1.7 | 0.00 | 0.00 | 0.00 | 90 | 1012.7 |
| 20260905065227 | 78 | 31 | 0.0 | 1.7 | 0.00 | 0.00 | 0.00 | 90 | 1012.7 |
| 20260905064722 | 78 | 41 | 0.0 | 1.7 | 0.00 | 0.00 | 0.00 | 88 | 1012.6 |
| 20260905064218 | 78 | 45 | 0.0 | 1.7 | 0.00 | 0.00 | 0.00 | 88 | 1012.6 |
| 20260905063716 | 78 | 65 | 1.7 | 1.7 | 0.00 | 0.00 | 0.00 | 88 | 1012.8 |
| 20260905063213 | 78 | 92 | 1.7 | 1.7 | 0.00 | 0.00 | 0.00 | 88 | 1012.6 |
| 20260905062708 | 78 | 52 | 0.0 | 1.7 | 0.00 | 0.00 | 0.00 | 87 | 1012.7 |
| 20260905062208 | 78 | 82 | 0.9 | 1.7 | 0.00 | 0.00 | 0.00 | 87 | 1012.7 |
| 20260905061708 | 79 | 64 | 0.0 | 1.7 | 0.00 | 0.00 | 0.00 | 87 | 1012.7 |
| 20260905061202 | 79 | 78 | 0.0 | 1.7 | 0.00 | 0.00 | 0.00 | 86 | 1012.6 |
| 20260905060657 | 79 | 70 | 1.7 | 1.7 | 0.00 | 0.00 | 0.00 | 86 | 1012.7 |
| 20260905060154 | 79 | 87 | 0.9 | 1.7 | 0.00 | 0.00 | 0.00 | 86 | 1012.7 |
| 20260905055652 | 79 | 65 | 1.7 | 1.7 | 0.00 | 0.00 | 0.00 | 86 | 1012.6 |
| 20260905055148 | 79 | 62 | 1.7 | 2.6 | 0.00 | 0.00 | 0.00 | 86 | 1012.8 |
| 20260905054643 | 79 | 83 | 0.0 | 2.6 | 0.00 | 0.00 | 0.00 | 86 | 1012.6 |
| 20260905054139 | 79 | 83 | 0.0 | 1.7 | 0.00 | 0.00 | 0.00 | 85 | 1012.8 |
| 20260905053638 | 79 | 60 | 0.0 | 1.7 | 0.00 | 0.00 | 0.00 | 85 | 1012.7 |
| 20260905053133 | 79 | 85 | 0.9 | 2.6 | 0.00 | 0.00 | 0.00 | 84 | 1012.7 |
| 20260905052633 | 79 | 86 | 0.0 | 1.7 | 0.00 | 0.00 | 0.00 | 84 | 1012.5 |
| 20260905052128 | 79 | 83 | 1.7 | 1.7 | 0.00 | 0.00 | 0.00 | 84 | 1012.8 |
| 20260905051623 | 79 | 68 | 0.9 | 1.7 | 0.00 | 0.00 | 0.00 | 83 | 1012.8 |
| 20260905051120 | 80 | 74 | 0.9 | 1.7 | 0.00 | 0.00 | 0.00 | 83 | 1012.6 |
| 20260905050616 | 80 | 103 | 0.0 | 1.7 | 0.00 | 0.00 | 0.00 | 83 | 1012.5 |
| 20260905050112 | 80 | 111 | 0.0 | 0.9 | 0.00 | 0.00 | 0.00 | 83 | 1012.7 |
| 20260905045612 | 80 | 49 | 1.7 | 1.7 | 0.00 | 0.00 | 0.00 | 82 | 1012.7 |
| 20260905045108 | 80 | 37 | 0.0 | 1.7 | 0.00 | 0.00 | 0.00 | 82 | 1012.6 |
| 20260905044607 | 80 | 151 | 0.0 | 0.9 | 0.00 | 0.00 | 0.00 | 82 | 1012.5 |
| 20260905044102 | 80 | 111 | 0.9 | 1.7 | 0.00 | 0.00 | 0.00 | 81 | 1012.7 |
| 20260905043601 | 80 | 82 | 0.0 | 1.7 | 0.00 | 0.00 | 0.00 | 81 | 1012.6 |
| 20260905043057 | 81 | 50 | 0.0 | 1.7 | 0.00 | 0.00 | 0.00 | 80 | 1012.7 |
| 20260905042555 | 81 | 50 | 0.0 | 1.7 | 0.00 | 0.00 | 0.00 | 80 | 1012.8 |
| 20260905042051 | 81 | 89 | 0.9 | 1.7 | 0.00 | 0.00 | 0.00 | 79 | 1013.1 |
| 20260905041546 | 81 | 68 | 0.0 | 2.6 | 0.00 | 0.00 | 0.00 | 80 | 1012.8 |
| 20260905041041 | 81 | 80 | 0.0 | 1.7 | 0.00 | 0.00 | 0.00 | 79 | 1012.8 |
| 20260905040541 | 81 | 59 | 0.9 | 1.7 | 0.00 | 0.00 | 0.00 | 79 | 1012.9 |
| 20260905040039 | 81 | 47 | 1.7 | 1.7 | 0.00 | 0.00 | 0.00 | 79 | 1012.8 |
| 20260905035535 | 81 | 74 | 0.0 | 1.7 | 0.00 | 0.00 | 0.00 | 79 | 1013.0 |
| 20260905035032 | 82 | 83 | 1.7 | 1.7 | 0.00 | 0.00 | 0.00 | 78 | 1013.0 |
| 20260905034528 | 82 | 58 | 0.9 | 1.7 | 0.00 | 0.00 | 0.00 | 77 | 1013.0 |
| 20260905034027 | 82 | 57 | 0.0 | 1.7 | 0.00 | 0.00 | 0.00 | 77 | 1013.1 |
| 20260905033526 | 82 | 97 | 0.9 | 1.7 | 0.00 | 0.00 | 0.00 | 76 | 1013.2 |
| 20260905033022 | 83 | 51 | 0.9 | 1.7 | 0.00 | 0.00 | 0.00 | 75 | 1013.3 |
| 20260905032517 | 83 | 60 | 0.9 | 1.7 | 0.00 | 0.00 | 0.00 | 75 | 1013.2 |
| 20260905032012 | 83 | 82 | 0.9 | 1.7 | 0.00 | 0.00 | 0.00 | 75 | 1013.1 |
| 20260905031508 | 83 | 68 | 0.9 | 1.7 | 0.00 | 0.00 | 0.00 | 74 | 1013.2 |
| 20260905031003 | 84 | 83 | 0.0 | 1.7 | 0.00 | 0.00 | 0.00 | 73 | 1013.2 |
| 20260905030458 | 84 | 53 | 0.0 | 1.7 | 0.00 | 0.00 | 0.00 | 73 | 1013.3 |
| 20260905025957 | 84 | 60 | 0.0 | 1.7 | 0.00 | 0.00 | 0.00 | 72 | 1013.3 |
| 20260905025453 | 84 | 60 | 0.0 | 1.7 | 0.00 | 0.00 | 0.00 | 71 | 1013.4 |
| 20260905024949 | 85 | 24 | 0.9 | 1.7 | 0.00 | 0.00 | 0.00 | 72 | 1013.3 |
| 20260905024449 | 85 | 101 | 0.0 | 1.7 | 0.00 | 0.00 | 0.00 | 71 | 1013.2 |
| 20260905023945 | 85 | 58 | 0.0 | 1.7 | 0.00 | 0.00 | 0.00 | 70 | 1013.3 |
| 20260905023440 | 85 | 45 | 0.0 | 1.7 | 0.00 | 0.00 | 0.00 | 70 | 1013.2 |
| 20260905022939 | 84 | 59 | 1.7 | 4.3 | 0.00 | 0.00 | 0.00 | 72 | 1013.4 |